Alturas Municipal, CA

9:11 AM PDT on October 25, 2014 (GMT -0700)
Lake County | Change Station
CLOSE
Current Station
Airport
Location: Lakeview AWS,
Elevation: 4728 ft
Nearby Weather Stations

Elev 4728 ft 42.16 °N, 120.40 °W | Updated 16 minutes ago

Clear
Clear
54 °F
Feels Like 54 °F
N
28
Wind Variable Wind from South
Gusts 36 mph

Today
High -- | Low -- °F
--% Chance of Precip.
Yesterday
High -- | Low -- °F
Precip. -- in
7:25 AM 6:06 PM
Waxing Crescent, 3% visible
Pressure 29.79 in
Visibility 8.0 miles
Clouds Mostly Cloudy 4600 ft
Mostly Cloudy 6500 ft
Dew Point 34 °F
Humidity 47%
Rainfall 0.00 in
Snow Depth 0 in
UV 1 out of 12
Pollen .50 out of 12
Air Quality Not available.
Flu Activity Sporadic
METAR KLKV 251555Z AUTO 17024G31KT 8SM BKN046 BKN065 12/01 A2979 RMK AO1

More Conditions Fewer Conditions

Pressure 29.79 in
Visibility 8.0 miles
Clouds Mostly Cloudy 4600 ft
Mostly Cloudy 6500 ft
Dew Point 34 °F
Humidity 47%
Rainfall 0.00 in
Snow Depth 0 in
UV 1 out of 12
Pollen .50 out of 12
Air Quality Not available.
Flu Activity Sporadic
METAR KLKV 251555Z AUTO 17024G31KT 8SM BKN046 BKN065 12/01 A2979 RMK AO1

More Conditions Fewer Conditions

10-Day Weather Forecast

Almanac

Astronomy

Oct. 25, 2014 Rise Set
Actual Time 7:25 AM PDT 6:06 PM PDT
Civil Twilight 6:57 AM PDT 6:34 PM PDT
Nautical Twilight 6:24 AM PDT 7:06 PM PDT
Astronomical Twilight 5:52 AM PDT 7:39 PM PDT
Moon 9:10 AM PDT 7:32 PM PDT
Length of Visible Light 11h 37m
Length of Day
10h 40m
Tomorrow will be 2m 33s shorter.
Waxing Crescent, 3% of the Moon is Illuminated
Today
Waxing Crescent
Oct 30
First Quarter
Nov 6
Full
Nov 14
Last Quarter
Nov 22
New

Today's Extremes

State Highs State Lows

Community

WunderPhotos

Upload Photos

1,764,887 photos uploaded!

Nearby

Snow Depth

Station Depth Elevation
Adin Mountain 0 in 6200 ft
Independence Creek 0 in 6500 ft
Independence Camp 0 in 7000 ft
Independence Lake 0 in 8450 ft
CSS Lab 1 in 6900 ft

Earthquake Activity

City Distance Mag. Time & Date
Gerlach-Empire, Nevada 93 miles 2.5 7:16 AM PDT
2014-10-23
Minimum magnitude displayed is 2.5.

Coastal Water Temperatures

Place Temperature
No Stations Reporting

Nearby Weather Stations